Time;durP1;ratioP1;P1;durP2;ratioP2;P2;SDS_P1;SDS_P2;PMS_P1;PMS_P2;Temp;Humidity;BMP_temperature;BMP_pressure;BME280_temperature;BME280_humidity;BME280_pressure;Samples;Min_cycle;Max_cycle;Signal;HPM_P1;HPM_P2
2022/01/03 00:02:17;;;;;;;20.63;3.60;;;;;;;10.54;78.60;101120.41;5053990;28;20470;-66
2022/01/03 00:04:42;;;;;;;21.02;3.58;;;;;;;10.55;78.70;101121.28;5054051;28;20029;-66
2022/01/03 00:07:11;;;;;;;24.05;3.63;;;;;;;10.53;78.77;101123.88;5053914;28;20025;-67
2022/01/03 00:09:36;;;;;;;23.02;3.70;;;;;;;10.51;78.78;101117.72;5053725;28;20036;-66
2022/01/03 00:12:02;;;;;;;18.17;3.63;;;;;;;10.47;78.79;101134.38;5053707;28;20031;-65
2022/01/03 00:14:29;;;;;;;24.13;3.75;;;;;;;10.49;78.81;101120.34;5053307;28;20032;-65
2022/01/03 00:16:54;;;;;;;21.85;3.42;;;;;;;10.48;79.12;101122.94;5053689;28;20020;-66
2022/01/03 00:19:19;;;;;;;23.30;4.40;;;;;;;10.48;78.51;101125.56;5053648;28;20107;-66
2022/01/03 00:21:47;;;;;;;23.20;3.50;;;;;;;10.48;78.73;101130.84;5053709;28;20366;-66
2022/01/03 00:24:19;;;;;;;16.60;3.85;;;;;;;10.45;78.99;101138.75;5053644;28;20021;-66
2022/01/03 00:26:53;;;;;;;20.35;3.40;;;;;;;10.46;78.77;101135.25;5053319;28;20025;-66
2022/01/03 00:29:22;;;;;;;15.27;3.78;;;;;;;10.43;78.10;101135.19;5053458;28;20025;-66
2022/01/03 00:31:48;;;;;;;20.98;3.78;;;;;;;10.46;78.43;101141.41;5053496;28;20028;-66
2022/01/03 00:34:14;;;;;;;22.73;4.05;;;;;;;10.45;78.14;101134.38;5053715;28;20103;-66
2022/01/03 00:36:43;;;;;;;21.02;3.78;;;;;;;10.47;78.16;101126.44;5053544;28;20021;-66
2022/01/03 00:39:10;;;;;;;23.40;4.03;;;;;;;10.44;78.05;101142.25;5035437;28;20459;-66
2022/01/03 00:41:41;;;;;;;25.05;4.05;;;;;;;10.50;77.66;101143.25;5053199;28;20433;-65
2022/01/03 00:44:07;;;;;;;27.10;4.47;;;;;;;10.53;78.03;101137.09;5053540;28;20588;-66
2022/01/03 00:46:34;;;;;;;20.50;3.80;;;;;;;10.52;77.82;101143.25;5053244;28;20386;-66
2022/01/03 00:49:00;;;;;;;19.65;3.88;;;;;;;10.48;77.92;101131.75;5053074;28;20074;-66
2022/01/03 00:51:29;;;;;;;19.45;3.88;;;;;;;10.50;77.70;101131.78;5053156;28;20037;-66
2022/01/03 00:53:54;;;;;;;16.55;3.63;;;;;;;10.50;77.62;101140.59;5053119;28;20081;-66
2022/01/03 00:56:34;;;;;;;18.75;4.03;;;;;;;10.54;77.42;101149.47;5052994;28;20105;-65
2022/01/03 00:59:07;;;;;;;13.90;3.42;;;;;;;10.52;77.11;101145.91;5052895;28;20049;-66
2022/01/03 01:01:36;;;;;;;15.90;3.63;;;;;;;10.58;76.65;101145.09;5053055;28;20029;-65
2022/01/03 01:04:03;;;;;;;20.67;4.38;;;;;;;10.61;76.16;101146.03;5053139;28;20393;-65
2022/01/03 01:06:33;;;;;;;17.98;4.03;;;;;;;10.63;76.38;101146.97;5052771;28;20025;-66
2022/01/03 01:09:03;;;;;;;15.63;3.55;;;;;;;10.61;76.01;101147.78;5052854;28;20028;-65
2022/01/03 01:11:41;;;;;;;17.35;4.20;;;;;;;10.59;76.27;101129.28;5053042;28;20100;-65
2022/01/03 01:14:07;;;;;;;21.83;4.20;;;;;;;10.60;76.58;101135.44;5052946;28;20029;-66
2022/01/03 01:16:32;;;;;;;19.83;4.18;;;;;;;10.61;76.39;101150.44;5052975;28;20022;-66
2022/01/03 01:18:58;;;;;;;17.33;4.07;;;;;;;10.59;76.73;101155.72;5052891;28;20086;-66
2022/01/03 01:21:25;;;;;;;20.00;4.05;;;;;;;10.57;76.75;101152.13;5052705;28;20060;-66
2022/01/03 01:23:52;;;;;;;19.67;4.70;;;;;;;10.57;76.96;101156.53;5052962;28;20033;-66
2022/01/03 01:29:05;;;;;;;19.85;3.85;;;;;;;10.55;76.66;101153.88;5056981;28;20040;-66
2022/01/03 01:31:33;;;;;;;20.48;4.38;;;;;;;10.59;76.58;101154.81;5056922;28;20021;-65
2022/01/03 01:34:04;;;;;;;17.95;4.38;;;;;;;10.54;77.10;101167.97;5056729;28;20029;-65
2022/01/03 01:36:30;;;;;;;18.73;4.07;;;;;;;10.57;76.68;101175.91;5056754;28;20028;-65
2022/01/03 01:39:03;;;;;;;20.15;3.95;;;;;;;10.59;76.56;101187.41;5056750;28;20037;-66
2022/01/03 01:41:29;;;;;;;23.55;4.43;;;;;;;10.53;76.84;101182.94;5056600;28;20429;-66
2022/01/03 01:43:59;;;;;;;20.95;4.40;;;;;;;10.51;76.89;101186.41;5056696;28;20028;-65
2022/01/03 01:46:26;;;;;;;21.85;4.35;;;;;;;10.49;76.99;101182.81;5056390;28;20032;-65
2022/01/03 01:48:52;;;;;;;19.30;3.97;;;;;;;10.47;77.04;101185.47;5056492;28;20031;-66
2022/01/03 01:51:21;;;;;;;16.98;3.88;;;;;;;10.47;77.04;101171.38;5056488;28;20104;-67
2022/01/03 01:53:53;;;;;;;25.35;4.70;;;;;;;10.45;77.14;101174.00;5056592;28;20033;-65
2022/01/03 01:56:24;;;;;;;21.60;4.60;;;;;;;10.44;77.49;101176.59;5056298;28;20075;-67
2022/01/03 01:59:10;;;;;;;17.50;4.15;;;;;;;10.41;77.77;101173.91;5055914;28;20060;-67
2022/01/03 02:01:44;;;;;;;19.50;4.10;;;;;;;10.39;77.55;101170.34;5056352;28;20524;-66
2022/01/03 02:04:32;;;;;;;22.17;4.07;;;;;;;10.34;78.13;101172.03;5056255;28;20029;-66
2022/01/03 02:07:25;;;;;;;24.30;4.03;;;;;;;10.30;78.12;101179.00;5056153;28;20078;-66
2022/01/03 02:10:12;;;;;;;21.33;3.95;;;;;;;10.30;78.05;101173.72;5056152;28;20063;-67
2022/01/03 02:12:41;;;;;;;19.98;3.70;;;;;;;10.25;78.15;101176.28;5056101;28;20115;-66
2022/01/03 02:15:11;;;;;;;21.10;4.05;;;;;;;10.23;78.02;101185.00;5056129;28;20099;-65
2022/01/03 02:17:38;;;;;;;18.38;3.72;;;;;;;10.16;78.66;101169.94;5055959;28;20421;-66
2022/01/03 02:20:23;;;;;;;22.77;4.05;;;;;;;10.16;78.55;101177.84;5055842;28;20025;-65
2022/01/03 02:22:50;;;;;;;16.35;3.58;;;;;;;10.09;78.37;101165.38;5056187;28;20027;-66
2022/01/03 02:25:18;;;;;;;21.83;3.88;;;;;;;10.12;78.59;101165.44;5055977;28;20029;-65
2022/01/03 02:27:46;;;;;;;19.15;3.35;;;;;;;10.04;78.54;101167.94;5055647;28;20073;-65
2022/01/03 02:30:15;;;;;;;19.33;3.60;;;;;;;10.00;78.79;101172.28;5055766;28;20143;-65
2022/01/03 02:32:41;;;;;;;22.38;4.10;;;;;;;9.99;79.01;101177.53;5055539;28;20029;-66
2022/01/03 02:35:07;;;;;;;16.30;3.58;;;;;;;10.01;78.73;101178.44;5055951;28;20107;-65
2022/01/03 02:37:33;;;;;;;20.42;3.58;;;;;;;9.95;79.39;101183.63;5055130;28;20029;-66
2022/01/03 02:39:58;;;;;;;17.88;3.85;;;;;;;9.91;79.25;101180.03;5055650;28;20036;-65
2022/01/03 02:42:27;;;;;;;24.80;3.92;;;;;;;9.88;79.44;101174.69;5055458;28;20029;-65
2022/01/03 02:45:00;;;;;;;17.48;3.83;;;;;;;9.92;79.27;101173.00;5055597;28;20036;-65
2022/01/03 02:47:25;;;;;;;20.15;3.50;;;;;;;9.91;79.29;101179.16;5055334;28;20033;-66
2022/01/03 02:49:51;;;;;;;17.42;3.67;;;;;;;9.89;79.51;101181.78;5055482;28;20044;-65
2022/01/03 02:52:16;;;;;;;26.00;4.10;;;;;;;9.94;78.89;101177.47;5055340;28;20021;-65
2022/01/03 02:54:41;;;;;;;24.67;3.53;;;;;;;9.93;79.45;101175.66;5055379;28;20368;-65
2022/01/03 02:57:07;;;;;;;23.23;3.78;;;;;;;9.96;79.24;101183.63;5054849;28;20086;-66
2022/01/03 02:59:32;;;;;;;21.77;4.05;;;;;;;9.92;79.25;101165.09;5054129;28;20150;-65
2022/01/03 03:01:58;;;;;;;19.85;4.03;;;;;;;9.93;79.17;101186.22;5054011;28;20025;-66
2022/01/03 03:04:24;;;;;;;19.10;4.07;;;;;;;9.93;79.35;101187.97;5054150;28;20122;-65
2022/01/03 03:06:50;;;;;;;25.88;4.22;;;;;;;9.94;79.12;101184.50;5054029;28;20029;-65
2022/01/03 03:09:16;;;;;;;18.77;3.75;;;;;;;9.94;79.09;101185.38;5036113;28;20040;-65
2022/01/03 03:11:42;;;;;;;29.25;4.82;;;;;;;9.91;79.17;101182.69;5053912;28;20017;-65
2022/01/03 03:14:08;;;;;;;23.40;3.72;;;;;;;9.91;79.32;101189.72;5053952;28;20060;-65
2022/01/03 03:16:34;;;;;;;23.95;4.13;;;;;;;9.86;79.43;101179.06;5053852;28;20044;-65
2022/01/03 03:19:00;;;;;;;23.20;4.05;;;;;;;9.86;79.95;101179.06;5053776;28;20382;-66
2022/01/03 03:21:29;;;;;;;23.08;4.72;;;;;;;9.84;79.90;101186.03;5053900;28;20120;-66
2022/01/03 03:23:54;;;;;;;23.10;4.57;;;;;;;9.89;79.57;101188.78;5053836;28;20056;-65
2022/01/03 03:26:20;;;;;;;25.65;3.80;;;;;;;9.88;79.63;101187.88;5053493;28;20478;-65
2022/01/03 03:28:45;;;;;;;24.10;4.00;;;;;;;9.87;79.59;101186.13;5035746;28;20033;-65
2022/01/03 03:31:11;;;;;;;21.40;4.65;;;;;;;9.87;79.87;101196.66;5053665;28;20083;-65
2022/01/03 03:33:38;;;;;;;20.92;3.80;;;;;;;9.86;79.55;101186.97;5053486;28;20108;-65
2022/01/03 03:36:13;;;;;;;28.48;4.30;;;;;;;9.87;79.88;101185.22;5053754;28;20060;-65
2022/01/03 03:38:39;;;;;;;24.52;4.05;;;;;;;9.87;80.12;101191.41;5053529;28;20029;-66
2022/01/03 03:41:04;;;;;;;22.10;4.25;;;;;;;9.89;79.52;101189.69;5053229;28;20024;-66
2022/01/03 03:43:30;;;;;;;23.17;3.58;;;;;;;9.92;79.80;101181.81;5053470;28;20075;-66
2022/01/03 03:45:56;;;;;;;25.90;4.72;;;;;;;9.93;79.97;101193.25;5053540;28;20035;-66
2022/01/03 03:48:22;;;;;;;26.60;4.57;;;;;;;9.91;80.05;101187.06;5052341;28;20025;-66
2022/01/03 03:50:48;;;;;;;18.55;3.42;;;;;;;9.96;79.86;101202.13;5053337;28;20028;-66
2022/01/03 03:53:20;;;;;;;26.05;3.72;;;;;;;9.96;80.07;101178.38;5053255;28;20033;-66
2022/01/03 03:55:46;;;;;;;20.65;3.42;;;;;;;9.96;80.04;101172.19;5053216;28;20036;-66
2022/01/03 03:58:13;;;;;;;20.77;3.78;;;;;;;9.96;79.93;101174.84;5012297;28;1165281;-66
2022/01/03 04:00:39;;;;;;;23.88;3.97;;;;;;;9.95;80.24;101175.72;5054023;28;20045;-67
2022/01/03 04:03:04;;;;;;;19.80;3.75;;;;;;;9.91;80.27;101184.44;5054098;28;20035;-66
2022/01/03 04:05:30;;;;;;;24.88;4.05;;;;;;;9.91;80.35;101171.22;5054044;28;20052;-66
2022/01/03 04:07:55;;;;;;;20.42;3.63;;;;;;;9.90;80.34;101172.09;5053825;28;20029;-66
2022/01/03 04:10:21;;;;;;;27.33;4.03;;;;;;;9.88;80.45;101168.53;5053889;28;20028;-66
2022/01/03 04:12:46;;;;;;;26.38;4.32;;;;;;;9.90;80.31;101169.47;5053704;28;20028;-66
2022/01/03 04:15:12;;;;;;;26.13;4.45;;;;;;;9.93;79.98;101164.22;5053878;28;20021;-66
2022/01/03 04:17:38;;;;;;;20.27;4.00;;;;;;;9.90;80.38;101166.81;5053594;28;20075;-66
2022/01/03 04:20:05;;;;;;;32.20;4.70;;;;;;;9.93;80.07;101164.22;5053769;28;20466;-66
2022/01/03 04:22:31;;;;;;;21.95;3.25;;;;;;;9.90;79.98;101158.91;5053953;28;20056;-66
2022/01/03 04:24:56;;;;;;;30.65;4.28;;;;;;;9.91;79.68;101145.72;5053390;28;20094;-66
2022/01/03 04:27:24;;;;;;;23.02;4.10;;;;;;;9.95;80.06;101159.88;5035585;28;20047;-66
2022/01/03 04:29:49;;;;;;;33.72;5.35;;;;;;;9.96;79.87;101151.06;5052913;28;20037;-66
2022/01/03 04:32:15;;;;;;;27.45;4.53;;;;;;;9.92;80.18;101142.22;5053567;28;20523;-66
2022/01/03 04:34:40;;;;;;;24.33;4.40;;;;;;;9.97;80.09;101137.00;5053581;28;20029;-66
2022/01/03 04:37:05;;;;;;;17.70;4.00;;;;;;;9.96;79.91;101146.69;5053427;28;20082;-67
2022/01/03 04:39:31;;;;;;;25.67;4.35;;;;;;;9.96;79.83;101149.31;5053371;28;20029;-66
2022/01/03 04:41:56;;;;;;;24.35;4.18;;;;;;;9.94;79.94;101145.78;5053225;28;20029;-67
2022/01/03 04:44:22;;;;;;;22.17;3.67;;;;;;;9.94;79.81;101145.78;5053373;28;20025;-67
2022/01/03 04:46:47;;;;;;;24.73;3.95;;;;;;;9.93;80.24;101145.72;5035328;28;20024;-67
2022/01/03 04:49:13;;;;;;;31.50;4.18;;;;;;;9.94;79.93;101143.16;5053267;28;20036;-66
2022/01/03 04:51:40;;;;;;;25.80;3.72;;;;;;;9.97;80.25;101143.16;5053181;28;20032;-66
2022/01/03 04:54:05;;;;;;;20.52;3.35;;;;;;;10.00;80.00;101145.00;5053424;28;20021;-66
2022/01/03 04:56:33;;;;;;;26.25;4.25;;;;;;;9.99;79.93;101144.09;5053253;28;20039;-66
2022/01/03 04:59:00;;;;;;;19.77;3.85;;;;;;;9.99;79.97;101143.22;5035421;28;20039;-66
2022/01/03 05:01:26;;;;;;;28.73;4.10;;;;;;;10.02;79.82;101148.53;5053096;28;20452;-66
2022/01/03 05:03:52;;;;;;;27.27;4.50;;;;;;;10.01;79.78;101146.75;5052889;28;20033;-66
2022/01/03 05:06:18;;;;;;;25.60;4.50;;;;;;;10.04;79.73;101147.72;5053067;28;20028;-66
2022/01/03 05:08:44;;;;;;;22.00;3.40;;;;;;;10.02;79.70;101149.44;5052897;28;20032;-66
2022/01/03 05:11:10;;;;;;;22.67;3.80;;;;;;;10.02;80.06;101145.91;5052924;28;20032;-66
2022/01/03 05:13:36;;;;;;;24.67;3.80;;;;;;;10.02;79.99;101133.63;5052918;28;20029;-66
2022/01/03 05:16:02;;;;;;;23.77;4.22;;;;;;;10.04;79.90;101138.91;5053222;28;20021;-66
2022/01/03 05:18:33;;;;;;;28.35;4.05;;;;;;;10.04;79.78;101125.72;5052770;28;20471;-66
2022/01/03 05:20:58;;;;;;;20.27;4.47;;;;;;;10.04;79.78;101131.88;5035041;28;20040;-66
2022/01/03 05:23:24;;;;;;;21.52;4.28;;;;;;;10.02;80.02;101125.69;5052831;28;20021;-66
2022/01/03 05:25:50;;;;;;;20.80;3.53;;;;;;;10.03;80.13;101124.81;5052982;28;20020;-66
2022/01/03 05:28:15;;;;;;;23.05;4.78;;;;;;;10.01;80.25;101123.88;5052683;28;20035;-66
2022/01/03 05:30:41;;;;;;;21.02;3.72;;;;;;;9.99;80.04;101117.72;5052875;28;20025;-67
2022/01/03 05:33:07;;;;;;;19.15;4.10;;;;;;;9.97;80.06;101121.16;5052682;28;20043;-67
2022/01/03 05:35:32;;;;;;;23.33;4.05;;;;;;;9.98;80.31;101123.84;5052707;28;20032;-66
2022/01/03 05:37:58;;;;;;;26.17;4.07;;;;;;;9.98;80.26;101122.97;5052740;28;20035;-66
2022/01/03 05:40:24;;;;;;;25.48;4.10;;;;;;;10.01;80.11;101123.88;5052657;28;20025;-66
2022/01/03 05:42:51;;;;;;;21.13;3.83;;;;;;;9.99;80.05;101112.44;5052651;28;20028;-66
2022/01/03 05:45:16;;;;;;;25.63;4.07;;;;;;;10.00;80.18;101121.22;5052575;28;20028;-66
2022/01/03 05:47:46;;;;;;;26.75;3.72;;;;;;;10.00;79.85;101129.16;5052794;28;20017;-67
2022/01/03 05:50:13;;;;;;;22.08;3.80;;;;;;;9.99;79.96;101122.09;5052643;28;20471;-67
2022/01/03 05:52:39;;;;;;;24.75;3.72;;;;;;;9.94;79.83;101114.09;5030565;28;20084;-66
2022/01/03 05:55:05;;;;;;;25.05;4.10;;;;;;;9.96;80.15;101129.97;5032694;28;20076;-67
2022/01/03 05:57:32;;;;;;;19.05;3.60;;;;;;;10.00;79.88;101111.56;5032536;28;20083;-66
2022/01/03 05:59:57;;;;;;;25.30;3.60;;;;;;;9.98;79.82;101113.31;5014929;28;20183;-66
2022/01/03 06:02:25;;;;;;;21.95;3.95;;;;;;;10.00;79.86;101116.84;5032627;28;20049;-66
2022/01/03 06:04:59;;;;;;;30.23;4.18;;;;;;;10.00;80.05;101105.41;5032505;28;20387;-66
2022/01/03 06:07:25;;;;;;;17.58;3.38;;;;;;;9.99;80.19;101109.78;5032566;28;20120;-65
2022/01/03 06:09:50;;;;;;;24.13;3.58;;;;;;;10.04;79.58;101101.94;5032516;28;20040;-65
2022/01/03 06:12:17;;;;;;;20.48;3.60;;;;;;;10.04;80.06;101102.81;5033992;28;20033;-66
2022/01/03 06:14:47;;;;;;;23.08;3.38;;;;;;;10.01;79.82;101110.69;5018460;28;20053;-66
2022/01/03 06:17:14;;;;;;;20.83;3.63;;;;;;;10.01;80.32;101118.59;5036042;28;20021;-66
2022/01/03 06:19:40;;;;;;;22.55;3.33;;;;;;;10.01;80.30;101109.81;5036050;28;20470;-66
2022/01/03 06:22:09;;;;;;;20.05;3.30;;;;;;;9.98;80.29;101107.13;5036040;28;20025;-66
2022/01/03 06:24:37;;;;;;;23.40;3.83;;;;;;;9.96;80.72;101111.47;5036201;28;20163;-66
2022/01/03 06:27:04;;;;;;;22.88;3.33;;;;;;;9.94;80.90;101113.22;5035803;28;20378;-66
2022/01/03 06:29:29;;;;;;;25.70;3.20;;;;;;;9.89;80.93;101106.94;5035843;28;20099;-66
2022/01/03 06:31:54;;;;;;;24.45;3.80;;;;;;;9.88;80.89;101115.72;5035616;28;20475;-66
2022/01/03 06:34:20;;;;;;;22.92;3.80;;;;;;;9.85;80.84;101110.38;5035755;28;20023;-66
2022/01/03 06:36:46;;;;;;;15.95;3.00;;;;;;;9.84;81.28;101101.59;5035967;28;20439;-66
2022/01/03 06:39:12;;;;;;;21.70;3.42;;;;;;;9.77;81.39;101095.34;5035910;28;20029;-66
2022/01/03 06:41:40;;;;;;;19.33;3.15;;;;;;;9.76;81.58;101103.19;5035596;28;20147;-66
2022/01/03 06:44:06;;;;;;;21.75;3.38;;;;;;;9.72;81.72;101102.28;5035708;28;20036;-66
2022/01/03 06:46:32;;;;;;;25.42;3.50;;;;;;;9.70;82.24;101100.47;5035595;28;20033;-66
2022/01/03 06:49:00;;;;;;;19.83;3.58;;;;;;;9.72;81.99;101106.63;5035364;28;20107;-66
2022/01/03 06:51:25;;;;;;;22.88;3.15;;;;;;;9.71;82.71;101097.84;5035330;28;20069;-66
2022/01/03 06:53:51;;;;;;;13.63;2.88;;;;;;;9.69;83.53;101093.41;5035239;28;20156;-67
2022/01/03 06:56:16;;;;;;;18.52;3.17;;;;;;;9.65;83.62;101094.22;5035300;28;20029;-66
2022/01/03 06:58:42;;;;;;;21.83;3.30;;;;;;;9.62;84.12;101089.75;5035373;28;20029;-66
2022/01/03 07:01:09;;;;;;;16.67;3.10;;;;;;;9.57;84.68;101086.16;5035283;28;20033;-66
2022/01/03 07:03:34;;;;;;;24.67;3.55;;;;;;;9.57;84.95;101091.44;5035221;28;20034;-66
2022/01/03 07:06:00;;;;;;;18.73;3.35;;;;;;;9.52;85.21;101087.81;5035181;28;20041;-66
2022/01/03 07:08:25;;;;;;;15.80;3.40;;;;;;;9.54;85.31;101101.91;5035097;28;20061;-67
2022/01/03 07:10:51;;;;;;;20.65;3.35;;;;;;;9.50;85.48;101102.72;5035149;28;20033;-67
2022/01/03 07:13:17;;;;;;;12.18;2.92;;;;;;;9.52;85.26;101078.16;5034977;28;20388;-66
2022/01/03 07:21:10;;;;;;;14.63;2.97;;;;;;;9.47;85.66;101079.81;5020107;28;20172;-66
2022/01/03 07:23:36;;;;;;;18.10;3.22;;;;;;;9.46;85.68;101083.31;5033682;28;20112;-66
2022/01/03 07:26:02;;;;;;;17.83;3.22;;;;;;;9.45;85.49;101075.38;5034691;28;20160;-69
2022/01/03 07:28:33;;;;;;;20.27;3.28;;;;;;;9.43;85.62;101080.63;5034641;28;20029;-66
2022/01/03 07:30:58;;;;;;;19.05;3.08;;;;;;;9.42;85.68;101086.78;5034466;28;20017;-66
2022/01/03 07:33:24;;;;;;;16.05;3.17;;;;;;;9.43;85.38;101088.53;5034678;28;20109;-66
2022/01/03 07:35:50;;;;;;;17.88;3.28;;;;;;;9.38;85.03;101078.72;5034607;28;20025;-66
2022/01/03 07:38:15;;;;;;;17.98;3.40;;;;;;;9.41;84.96;101081.44;5016777;28;20033;-66
2022/01/03 07:40:40;;;;;;;21.88;3.10;;;;;;;9.39;84.96;101091.97;5034286;28;20382;-66
2022/01/03 07:43:06;;;;;;;23.40;3.30;;;;;;;9.40;84.93;101083.19;5033824;28;20091;-66
2022/01/03 07:45:32;;;;;;;18.95;3.30;;;;;;;9.38;84.76;101081.38;5033826;28;20452;-66
2022/01/03 07:47:58;;;;;;;14.45;2.92;;;;;;;9.37;84.57;101098.94;5033930;28;20033;-67
2022/01/03 07:50:24;;;;;;;17.30;3.03;;;;;;;9.38;84.29;101084.00;5015770;28;20031;-67
2022/01/03 07:52:49;;;;;;;18.08;3.28;;;;;;;9.37;84.70;101082.25;5033979;28;20467;-66
2022/01/03 07:55:15;;;;;;;16.10;2.88;;;;;;;9.37;84.89;101090.16;5033842;28;20097;-66
2022/01/03 07:57:43;;;;;;;17.63;3.60;;;;;;;9.33;84.52;101096.22;5033657;28;20056;-66
2022/01/03 08:00:13;;;;;;;15.88;3.30;;;;;;;9.42;84.32;101112.22;5033447;28;20017;-66
2022/01/03 08:02:40;;;;;;;17.35;3.00;;;;;;;9.42;84.62;101118.41;5033688;28;20021;-66
2022/01/03 08:05:08;;;;;;;15.65;3.15;;;;;;;9.44;84.60;101119.31;5033487;28;20029;-66
2022/01/03 08:07:34;;;;;;;19.67;3.47;;;;;;;9.48;84.47;101102.69;5016274;28;20021;-66
2022/01/03 08:09:59;;;;;;;16.08;3.10;;;;;;;9.51;84.53;101117.72;5033301;28;20095;-66
2022/01/03 08:12:25;;;;;;;17.55;3.22;;;;;;;9.54;83.85;101100.16;5033292;28;20018;-68
2022/01/03 08:14:51;;;;;;;20.40;3.42;;;;;;;9.53;84.54;101100.16;5033294;28;20022;-66
2022/01/03 08:17:16;;;;;;;17.55;3.47;;;;;;;9.55;84.60;101106.34;5015456;28;20100;-66
2022/01/03 08:19:41;;;;;;;19.95;3.42;;;;;;;9.56;83.69;101094.94;5033258;28;20030;-66
2022/01/03 08:22:07;;;;;;;13.73;3.22;;;;;;;9.59;83.60;101094.09;5033164;28;20029;-66
2022/01/03 08:24:32;;;;;;;18.50;3.40;;;;;;;9.56;83.61;101089.66;5033263;28;20028;-66
2022/01/03 08:26:58;;;;;;;18.75;3.22;;;;;;;9.61;83.41;101101.19;5032928;28;20029;-67
2022/01/03 08:29:24;;;;;;;16.90;3.35;;;;;;;9.62;83.18;101080.97;5033194;28;20021;-67
2022/01/03 08:31:50;;;;;;;21.58;3.72;;;;;;;9.60;83.42;101099.41;5032882;28;20029;-67
2022/01/03 08:34:15;;;;;;;21.48;3.40;;;;;;;9.65;83.46;101102.13;5032682;28;20021;-66
2022/01/03 08:36:41;;;;;;;16.00;3.50;;;;;;;9.66;83.17;101096.88;5033052;28;20492;-66
2022/01/03 08:39:09;;;;;;;14.93;2.80;;;;;;;9.67;83.10;101087.19;5033140;28;20454;-66
2022/01/03 08:41:35;;;;;;;18.02;3.25;;;;;;;9.71;82.98;101089.03;5032820;28;20037;-66
2022/01/03 08:44:04;;;;;;;22.80;3.30;;;;;;;9.70;83.15;101085.50;5032876;28;20026;-67
2022/01/03 08:46:30;;;;;;;18.88;3.90;;;;;;;9.73;83.00;101082.94;5032670;28;20030;-66
2022/01/03 08:48:56;;;;;;;15.80;3.70;;;;;;;9.72;82.86;101086.44;5032710;28;20032;-66
2022/01/03 08:51:21;;;;;;;19.80;3.28;;;;;;;9.71;83.01;101092.56;5032598;28;20479;-66
2022/01/03 08:53:47;;;;;;;21.55;3.70;;;;;;;9.71;82.99;101091.69;5032559;28;20094;-65
2022/01/03 08:56:12;;;;;;;18.88;3.15;;;;;;;9.71;83.05;101097.84;5032698;28;20100;-66
2022/01/03 08:58:38;;;;;;;20.63;3.83;;;;;;;9.71;82.99;101103.13;5032576;28;20040;-66
2022/01/03 09:01:03;;;;;;;17.40;3.83;;;;;;;9.70;83.19;101108.38;5032541;28;20138;-66
2022/01/03 09:03:29;;;;;;;17.88;3.00;;;;;;;9.72;82.84;101120.75;5032657;28;20030;-66
2022/01/03 09:05:56;;;;;;;23.67;4.13;;;;;;;9.75;83.06;101111.97;5032892;28;20044;-66
2022/01/03 09:08:23;;;;;;;15.40;3.25;;;;;;;9.78;82.92;101114.69;5032548;28;20029;-66
2022/01/03 09:10:50;;;;;;;19.88;3.20;;;;;;;9.84;83.19;101106.88;5032501;28;20061;-66
2022/01/03 09:13:16;;;;;;;21.50;4.00;;;;;;;9.85;83.05;101111.31;5032483;28;20425;-66
2022/01/03 09:15:44;;;;;;;21.50;3.55;;;;;;;9.91;82.95;101110.53;5032412;28;20104;-66
2022/01/03 09:18:15;;;;;;;19.02;3.35;;;;;;;10.06;82.42;101099.31;5032640;28;20032;-66
2022/01/03 09:20:41;;;;;;;15.75;3.20;;;;;;;10.24;81.91;101112.84;5014916;28;20136;-66
2022/01/03 09:23:14;;;;;;;19.00;3.63;;;;;;;10.34;81.37;101095.44;5032446;28;20057;-66
2022/01/03 09:30:55;;;;;;;20.15;3.47;;;;;;;10.39;80.17;101086.69;5032676;28;20394;-65
2022/01/03 09:33:23;;;;;;;27.55;3.88;;;;;;;10.37;80.87;101095.47;5032235;28;20570;-66
2022/01/03 09:35:49;;;;;;;14.73;3.28;;;;;;;10.39;80.53;101091.09;5032483;28;20026;-66
2022/01/03 09:38:14;;;;;;;16.98;3.45;;;;;;;10.37;79.69;101071.72;5032491;28;20022;-66
2022/01/03 09:40:41;;;;;;;23.08;3.45;;;;;;;10.35;79.90;101065.50;5032419;28;20036;-66
2022/01/03 09:43:09;;;;;;;18.58;3.63;;;;;;;10.35;79.88;101065.50;5031957;28;20044;-67
2022/01/03 09:45:37;;;;;;;13.63;3.20;;;;;;;10.35;80.33;101076.06;5032346;28;20061;-68
2022/01/03 09:48:07;;;;;;;24.75;3.80;;;;;;;10.34;80.55;101066.38;5035293;28;20026;-66
2022/01/03 09:50:34;;;;;;;18.50;3.42;;;;;;;10.38;80.45;101074.34;5018391;28;20048;-65
2022/01/03 09:53:04;;;;;;;20.33;3.65;;;;;;;10.41;79.88;101081.47;5036027;28;20128;-65
2022/01/03 09:55:31;;;;;;;18.33;3.38;;;;;;;10.51;80.27;101097.44;5036139;28;20038;-66
2022/01/03 09:57:57;;;;;;;22.48;3.40;;;;;;;10.63;79.70;101080.00;5035842;28;20048;-66
2022/01/03 10:00:23;;;;;;;19.52;3.42;;;;;;;10.65;79.30;101079.16;5035914;28;20417;-65
2022/01/03 10:02:53;;;;;;;19.73;3.58;;;;;;;10.67;79.40;101073.91;5035939;28;20033;-66
2022/01/03 10:05:19;;;;;;;19.52;3.20;;;;;;;10.70;79.51;101069.53;5035949;28;20087;-65
2022/01/03 10:07:45;;;;;;;19.38;3.33;;;;;;;10.70;79.55;101073.94;5035925;28;20319;-65
2022/01/03 10:10:12;;;;;;;21.67;3.70;;;;;;;10.67;79.30;101072.16;5035789;28;20029;-65
2022/01/03 10:12:39;;;;;;;20.52;3.83;;;;;;;10.67;79.34;101061.56;5035210;28;20528;-66
2022/01/03 10:15:06;;;;;;;30.00;4.60;;;;;;;10.66;79.08;101064.19;5017978;28;20021;-65
2022/01/03 10:17:37;;;;;;;23.55;4.30;;;;;;;10.64;79.48;101066.81;5035795;28;20041;-65
2022/01/03 10:20:04;;;;;;;22.02;3.95;;;;;;;10.63;79.26;101066.81;5035527;28;20368;-65
2022/01/03 10:22:33;;;;;;;19.85;3.58;;;;;;;10.69;78.78;101072.16;5035525;28;20056;-65
2022/01/03 10:25:24;;;;;;;20.20;3.92;;;;;;;10.70;79.53;101080.09;5035552;28;20025;-65
2022/01/03 10:27:59;;;;;;;19.65;3.60;;;;;;;10.77;79.56;101074.03;5035106;28;20072;-65
2022/01/03 10:30:33;;;;;;;15.95;3.17;;;;;;;10.77;78.78;101075.78;5035430;28;20029;-65
2022/01/03 10:33:00;;;;;;;18.50;3.38;;;;;;;10.77;79.02;101068.75;5035250;28;20044;-65
2022/01/03 10:35:25;;;;;;;20.23;3.50;;;;;;;10.82;78.25;101062.63;5035319;28;20117;-65
2022/01/03 10:37:51;;;;;;;19.48;3.42;;;;;;;10.80;78.48;101074.97;5035076;28;20196;-65
2022/01/03 10:40:31;;;;;;;20.80;3.70;;;;;;;10.77;78.52;101070.50;5035253;28;20038;-65
2022/01/03 10:43:13;;;;;;;20.80;3.40;;;;;;;10.73;78.59;101055.47;5017227;28;20493;-65
2022/01/03 10:45:39;;;;;;;;;;;;;;;10.77;79.01;101052.00;5035865;28;20060;-65
2022/01/03 10:48:26;;;;;;;19.55;3.30;;;;;;;10.75;78.46;101045.81;5034735;28;19952;-66
2022/01/03 10:50:53;;;;;;;22.95;3.80;;;;;;;10.77;78.39;101052.88;5035141;28;20075;-65
2022/01/03 10:53:34;;;;;;;17.15;3.63;;;;;;;10.81;78.88;101039.72;5034777;28;20025;-65
2022/01/03 10:56:24;;;;;;;15.45;3.50;;;;;;;10.82;78.75;101033.56;5034989;28;20091;-66
2022/01/03 10:58:51;;;;;;;16.02;3.33;;;;;;;10.77;78.59;101034.38;5034303;28;20032;-65
2022/01/03 11:01:25;;;;;;;16.48;3.20;;;;;;;10.75;77.90;101017.63;5034881;28;20068;-65
2022/01/03 11:03:51;;;;;;;18.80;3.40;;;;;;;10.78;78.23;101011.47;5034623;28;20112;-65
2022/01/03 11:11:41;;;;;;;24.52;3.65;;;;;;;10.78;78.46;101011.47;5034855;28;20513;-65
2022/01/03 11:14:07;;;;;;;17.80;3.58;;;;;;;10.78;77.94;101004.44;5034769;28;20030;-65
2022/01/03 11:16:36;;;;;;;17.23;3.47;;;;;;;10.81;77.84;100997.44;5034599;28;20056;-65
2022/01/03 11:19:02;;;;;;;21.42;3.70;;;;;;;10.86;77.96;101012.47;5034503;28;20083;-65
2022/01/03 11:21:30;;;;;;;16.70;3.72;;;;;;;10.91;77.97;101004.59;5016424;28;20021;-65
2022/01/03 11:24:11;;;;;;;17.60;3.58;;;;;;;10.93;77.74;101002.88;5034210;28;20025;-66
2022/01/03 11:26:47;;;;;;;12.98;3.13;;;;;;;10.93;77.81;100995.81;5034262;28;20052;-65
2022/01/03 11:29:13;;;;;;;19.10;3.20;;;;;;;10.91;77.36;100997.53;5034455;28;20117;-65
2022/01/03 11:31:40;;;;;;;19.08;3.45;;;;;;;10.95;77.53;100987.91;5034269;28;20028;-65
2022/01/03 11:34:06;;;;;;;17.83;3.53;;;;;;;10.96;77.71;100993.22;5034272;28;20035;-65
2022/01/03 11:36:32;;;;;;;19.02;3.70;;;;;;;10.92;77.89;100990.50;5033933;28;20072;-65
2022/01/03 11:39:10;;;;;;;17.00;3.10;;;;;;;10.93;77.88;100987.00;5034112;28;20029;-65
2022/01/03 11:41:38;;;;;;;19.13;3.58;;;;;;;10.97;78.11;100987.06;5033948;28;20546;-65
2022/01/03 11:44:04;;;;;;;22.83;3.50;;;;;;;10.92;77.07;100978.19;5034033;28;20463;-65